createdAt,value
2022-12-15T00:00:41.830Z,22.00
2022-12-15T00:03:24.327Z,21.50
2022-12-15T00:06:07.027Z,26.00
2022-12-15T00:08:49.239Z,32.00
2022-12-15T00:11:31.618Z,49.70
2022-12-15T00:14:13.953Z,29.60
2022-12-15T00:16:56.109Z,40.70
2022-12-15T00:19:38.406Z,53.00
2022-12-15T00:22:21.398Z,23.80
2022-12-15T00:25:03.532Z,27.90
2022-12-15T00:27:45.864Z,37.80
2022-12-15T00:30:28.257Z,33.10
2022-12-15T00:33:10.593Z,40.50
2022-12-15T00:35:52.768Z,38.40
2022-12-15T00:38:35.085Z,21.00
2022-12-15T00:41:01.964Z,23.70
2022-12-15T00:43:31.647Z,26.00
2022-12-15T00:46:15.079Z,40.30
2022-12-15T00:48:42.685Z,29.00
2022-12-15T00:51:10.275Z,45.40
2022-12-15T00:53:53.100Z,69.20
2022-12-15T00:56:35.503Z,25.10
2022-12-15T00:59:17.853Z,31.90
2022-12-15T01:02:00.148Z,34.10
2022-12-15T01:04:43.344Z,40.40
2022-12-15T01:07:25.773Z,39.10
2022-12-15T01:10:08.153Z,25.30
2022-12-15T01:12:50.254Z,29.10
2022-12-15T01:15:32.667Z,31.00
2022-12-15T01:18:14.975Z,36.30
2022-12-15T01:20:41.698Z,29.60
2022-12-15T01:23:08.494Z,40.00
2022-12-15T01:25:37.877Z,50.10
2022-12-15T01:28:04.885Z,79.90
2022-12-15T01:30:31.724Z,30.60
2022-12-15T01:32:58.412Z,24.50
2022-12-15T01:35:27.675Z,22.70
2022-12-15T01:37:54.355Z,84.00
2022-12-15T01:40:36.763Z,21.70
2022-12-15T01:43:03.856Z,22.60
2022-12-15T01:45:30.564Z,22.00
2022-12-15T01:48:04.944Z,21.80
2022-12-15T01:50:37.184Z,39.40
2022-12-15T01:53:04.017Z,23.50
2022-12-15T01:55:32.973Z,26.40
2022-12-15T01:58:03.741Z,20.70
2022-12-15T02:00:31.103Z,25.70
2022-12-15T02:03:00.710Z,21.00
2022-12-15T02:05:30.223Z,27.30
2022-12-15T02:07:57.561Z,17.60
2022-12-15T02:10:34.932Z,25.10
2022-12-15T02:13:19.962Z,20.90
2022-12-15T02:15:58.581Z,27.70
2022-12-15T02:18:35.596Z,24.70
2022-12-15T02:21:23.858Z,23.50
2022-12-15T02:24:06.613Z,25.60
2022-12-15T02:27:04.275Z,27.40
2022-12-15T02:29:47.723Z,35.00
2022-12-15T02:32:19.019Z,25.90
2022-12-15T02:34:53.095Z,23.20
2022-12-15T02:37:27.853Z,31.70
2022-12-15T02:39:54.703Z,31.30
2022-12-15T02:42:23.099Z,25.00
2022-12-15T02:44:55.579Z,31.30
2022-12-15T02:47:46.244Z,29.60
2022-12-15T02:50:31.064Z,25.30
2022-12-15T02:53:09.645Z,21.90
2022-12-15T02:55:59.797Z,27.20
2022-12-15T02:58:32.962Z,29.80
2022-12-15T03:01:05.956Z,32.80
2022-12-15T03:03:35.998Z,26.20
2022-12-15T03:06:04.938Z,24.70
2022-12-15T03:08:31.635Z,24.30
2022-12-15T03:10:59.309Z,24.30
2022-12-15T03:13:26.299Z,22.20
2022-12-15T03:15:54.608Z,24.00
2022-12-15T03:18:21.647Z,25.10
2022-12-15T03:20:50.269Z,26.80
2022-12-15T03:23:16.976Z,25.70
2022-12-15T03:25:46.297Z,24.80
2022-12-15T03:28:16.744Z,22.10
2022-12-15T03:30:44.292Z,25.00
2022-12-15T03:33:11.630Z,23.50
2022-12-15T03:35:38.427Z,20.70
2022-12-15T03:38:05.236Z,24.00
2022-12-15T03:40:31.984Z,23.50
2022-12-15T03:42:58.873Z,23.20
2022-12-15T03:45:27.831Z,24.40
2022-12-15T03:47:57.811Z,22.00
2022-12-15T03:50:27.127Z,22.30
2022-12-15T03:52:57.157Z,20.10
2022-12-15T03:55:24.638Z,26.60
2022-12-15T03:57:52.393Z,26.40
2022-12-15T04:00:21.147Z,25.60
2022-12-15T04:02:49.973Z,27.10
2022-12-15T04:05:26.309Z,25.70
2022-12-15T04:07:54.435Z,23.90
2022-12-15T04:10:22.595Z,26.10
2022-12-15T04:12:49.418Z,26.20
2022-12-15T04:15:16.245Z,28.20
2022-12-15T04:17:43.485Z,24.40
2022-12-15T04:20:10.882Z,27.00
2022-12-15T04:22:41.380Z,27.30
2022-12-15T04:25:26.639Z,26.60
2022-12-15T04:28:09.397Z,26.80
2022-12-15T04:30:52.258Z,22.80
2022-12-15T04:33:36.136Z,24.40
2022-12-15T04:36:19.604Z,27.30
2022-12-15T04:39:01.714Z,28.00
2022-12-15T04:41:44.091Z,23.40
2022-12-15T04:44:27.477Z,27.10
2022-12-15T04:47:09.760Z,26.40
2022-12-15T04:49:51.950Z,26.40
2022-12-15T04:52:34.513Z,29.20
2022-12-15T04:55:16.809Z,27.20
2022-12-15T04:57:58.884Z,29.60
2022-12-15T05:00:41.289Z,26.30
2022-12-15T05:03:24.150Z,26.00
2022-12-15T05:06:06.271Z,28.40
2022-12-15T05:08:49.951Z,26.50
2022-12-15T05:11:32.564Z,24.70
2022-12-15T05:14:14.879Z,27.90
2022-12-15T05:16:57.068Z,28.00
2022-12-15T05:19:39.483Z,28.50
2022-12-15T05:22:21.753Z,27.40
2022-12-15T05:25:04.057Z,31.90
2022-12-15T05:27:46.289Z,31.30
2022-12-15T05:30:28.567Z,30.10
2022-12-15T05:32:55.475Z,30.90
2022-12-15T05:35:22.214Z,32.90
2022-12-15T05:37:49.053Z,27.40
2022-12-15T05:40:15.937Z,28.70
2022-12-15T05:42:42.664Z,31.60
2022-12-15T05:45:10.410Z,31.10
2022-12-15T05:47:37.121Z,33.00
2022-12-15T05:50:04.337Z,31.80
2022-12-15T05:52:31.052Z,29.50
2022-12-15T05:54:57.833Z,32.30
2022-12-15T05:57:24.634Z,31.70
2022-12-15T05:59:51.536Z,32.20
2022-12-15T06:02:18.329Z,32.20
2022-12-15T06:04:45.162Z,34.60
2022-12-15T06:07:11.952Z,32.70
2022-12-15T06:09:38.757Z,35.50
2022-12-15T06:12:05.655Z,36.10
2022-12-15T06:14:32.449Z,35.20
2022-12-15T06:17:00.177Z,32.80
2022-12-15T06:19:27.604Z,35.30
2022-12-15T06:21:54.453Z,33.90
2022-12-15T06:24:21.246Z,32.40
2022-12-15T06:26:49.706Z,33.10
2022-12-15T06:29:17.086Z,35.20
2022-12-15T06:31:44.420Z,18.10
2022-12-15T06:34:13.284Z,36.70
2022-12-15T06:36:40.692Z,36.30
2022-12-15T06:39:10.892Z,37.80
2022-12-15T06:41:38.121Z,38.60
2022-12-15T06:44:05.815Z,35.00
2022-12-15T06:46:35.097Z,32.80
2022-12-15T06:49:02.111Z,32.90
2022-12-15T06:51:29.359Z,31.90
2022-12-15T06:53:56.559Z,28.40
2022-12-15T06:56:33.153Z,27.00
2022-12-15T06:59:02.276Z,25.00
2022-12-15T07:01:30.219Z,21.80
2022-12-15T07:04:00.404Z,25.90
2022-12-15T07:06:28.562Z,24.30
2022-12-15T07:08:56.861Z,24.10
2022-12-15T07:11:24.096Z,26.80
2022-12-15T07:13:53.504Z,27.50
2022-12-15T07:16:21.950Z,29.10
2022-12-15T07:18:49.169Z,30.50
2022-12-15T07:21:16.287Z,30.40
2022-12-15T07:23:59.158Z,30.40
2022-12-15T07:26:27.995Z,30.40
2022-12-15T07:28:54.981Z,29.80
2022-12-15T07:31:23.142Z,30.30
2022-12-15T07:33:52.355Z,32.00
2022-12-15T07:36:19.736Z,30.80
2022-12-15T07:38:50.257Z,30.10
2022-12-15T07:41:19.674Z,31.20
2022-12-15T07:43:47.908Z,30.40
2022-12-15T07:46:15.623Z,30.00
2022-12-15T07:48:42.912Z,30.30
2022-12-15T07:51:17.135Z,31.80
2022-12-15T07:53:46.634Z,32.70
2022-12-15T07:56:13.706Z,29.80
2022-12-15T07:58:40.430Z,29.00
2022-12-15T08:01:10.818Z,24.60
2022-12-15T08:03:39.402Z,31.60
2022-12-15T08:06:10.151Z,22.90
2022-12-15T08:08:38.911Z,19.80
2022-12-15T08:11:08.175Z,23.90
2022-12-15T08:16:22.892Z,29.20
2022-12-15T08:18:49.734Z,30.80
2022-12-15T08:21:17.281Z,18.60
2022-12-15T08:23:44.077Z,32.20
2022-12-15T08:26:18.358Z,31.00
2022-12-15T08:28:46.059Z,30.50
2022-12-15T08:31:16.997Z,29.20
2022-12-15T08:33:44.821Z,31.40
2022-12-15T08:36:13.888Z,32.50
2022-12-15T08:38:42.356Z,31.00
2022-12-15T08:41:11.725Z,28.80
2022-12-15T08:43:47.243Z,32.90
2022-12-15T08:46:17.106Z,29.40
2022-12-15T08:48:44.738Z,30.10
2022-12-15T08:51:12.278Z,31.20
2022-12-15T08:53:39.229Z,31.80
2022-12-15T08:56:08.702Z,32.00
2022-12-15T08:58:35.560Z,31.60
2022-12-15T09:01:08.218Z,29.80
2022-12-15T09:03:36.697Z,32.00
2022-12-15T09:06:06.127Z,29.00
2022-12-15T09:08:33.818Z,30.20
2022-12-15T09:11:01.812Z,29.20
2022-12-15T09:13:29.991Z,30.30
2022-12-15T09:16:09.448Z,30.80
2022-12-15T09:18:36.866Z,29.00
2022-12-15T09:21:06.360Z,22.80
2022-12-15T09:23:35.336Z,31.20
2022-12-15T09:26:04.965Z,28.30
2022-12-15T09:28:33.046Z,31.10
2022-12-15T09:31:09.669Z,29.90
2022-12-15T09:33:37.891Z,31.70
2022-12-15T09:36:05.615Z,32.60
2022-12-15T09:38:35.202Z,29.10
2022-12-15T09:41:09.651Z,31.70
2022-12-15T09:43:47.058Z,29.90
2022-12-15T09:46:39.042Z,31.20
2022-12-15T09:49:37.700Z,29.60
2022-12-15T09:52:11.694Z,29.70
2022-12-15T09:54:41.897Z,29.80
2022-12-15T09:57:39.915Z,29.90
2022-12-15T10:00:25.871Z,28.10
2022-12-15T10:03:12.999Z,24.00
2022-12-15T10:08:50.382Z,28.20
2022-12-15T10:11:33.318Z,28.30
2022-12-15T10:14:12.045Z,30.40
2022-12-15T10:16:43.346Z,29.80
2022-12-15T10:19:19.892Z,29.50
2022-12-15T10:21:50.437Z,27.70
2022-12-15T10:24:44.260Z,28.70
2022-12-15T10:27:19.046Z,30.90
2022-12-15T10:29:51.424Z,19.50
2022-12-15T10:32:24.870Z,31.50
2022-12-15T10:34:51.655Z,33.80
2022-12-15T10:37:20.997Z,31.60
2022-12-15T10:39:50.507Z,32.30
2022-12-15T10:42:23.810Z,30.30
2022-12-15T10:44:54.227Z,30.60
2022-12-15T10:47:26.188Z,31.90
2022-12-15T10:49:54.646Z,29.90
2022-12-15T10:52:27.642Z,28.00
2022-12-15T10:54:55.432Z,32.00
2022-12-15T10:57:22.265Z,31.10
2022-12-15T10:59:50.513Z,30.30
2022-12-15T11:02:24.448Z,30.30
2022-12-15T11:05:15.783Z,26.70
2022-12-15T11:07:48.559Z,30.60
2022-12-15T11:10:17.999Z,31.20
2022-12-15T11:12:58.303Z,40.70
2022-12-15T11:15:37.803Z,32.00
2022-12-15T11:18:05.683Z,32.20
2022-12-15T11:20:37.581Z,28.50
2022-12-15T11:23:25.596Z,29.80
2022-12-15T11:26:07.229Z,30.10
2022-12-15T11:28:44.869Z,28.30
2022-12-15T11:31:22.903Z,28.80
2022-12-15T11:33:53.549Z,30.40
2022-12-15T11:36:49.438Z,35.40
2022-12-15T11:39:48.701Z,34.10
2022-12-15T11:42:42.712Z,31.70
2022-12-15T11:45:31.717Z,29.60
2022-12-15T11:47:59.725Z,28.40
2022-12-15T11:50:44.447Z,31.00
2022-12-15T11:53:42.184Z,30.30
2022-12-15T11:56:21.787Z,29.40
2022-12-15T11:58:56.373Z,31.20
2022-12-15T12:01:51.642Z,30.50
2022-12-15T12:04:26.035Z,30.50
2022-12-15T12:07:07.152Z,30.40
2022-12-15T12:09:45.465Z,29.70
2022-12-15T12:12:26.265Z,34.60
2022-12-15T12:15:11.667Z,30.10
2022-12-15T12:17:45.376Z,29.80
2022-12-15T12:20:41.117Z,29.70
2022-12-15T12:23:30.417Z,28.40
2022-12-15T12:26:06.596Z,25.50
2022-12-15T12:28:45.638Z,22.00
2022-12-15T12:31:38.694Z,22.90
2022-12-15T12:34:14.257Z,26.20
2022-12-15T12:36:43.888Z,31.70
2022-12-15T12:39:20.499Z,29.20
2022-12-15T12:41:57.009Z,31.60
2022-12-15T12:44:33.877Z,27.70
2022-12-15T12:47:07.034Z,23.90
2022-12-15T12:49:41.709Z,29.90
2022-12-15T12:52:23.802Z,28.20
2022-12-15T12:55:14.846Z,29.00
2022-12-15T12:57:43.390Z,29.90
2022-12-15T13:00:16.785Z,31.00
2022-12-15T13:02:54.832Z,31.20
2022-12-15T13:05:24.167Z,30.80
2022-12-15T13:08:11.317Z,31.50
2022-12-15T13:10:40.834Z,32.00
2022-12-15T13:13:08.573Z,22.00
2022-12-15T13:15:41.190Z,32.80
2022-12-15T13:18:23.166Z,29.50
2022-12-15T13:20:54.267Z,20.50
2022-12-15T13:23:22.052Z,24.00
2022-12-15T13:26:12.136Z,20.60
2022-12-15T13:28:39.489Z,30.70
2022-12-15T13:31:21.970Z,23.70
2022-12-15T13:33:51.280Z,28.30
2022-12-15T13:36:37.074Z,30.80
2022-12-15T13:39:12.859Z,30.10
2022-12-15T13:41:50.008Z,21.70
2022-12-15T13:44:33.436Z,26.00
2022-12-15T13:47:13.105Z,26.60
2022-12-15T13:50:01.818Z,25.90
2022-12-15T13:55:37.458Z,31.70
2022-12-15T13:58:22.928Z,14.50
2022-12-15T14:00:53.820Z,29.10
2022-12-15T14:03:20.976Z,14.10
2022-12-15T14:05:55.411Z,23.70
2022-12-15T14:08:24.847Z,22.90
2022-12-15T14:10:55.963Z,25.60
2022-12-15T14:13:26.627Z,27.80
2022-12-15T14:15:56.991Z,31.20
2022-12-15T14:18:29.440Z,14.50
2022-12-15T14:20:56.910Z,15.00
2022-12-15T14:23:27.282Z,24.00
2022-12-15T14:26:05.773Z,25.10
2022-12-15T14:28:35.614Z,30.70
2022-12-15T14:31:07.269Z,37.40
2022-12-15T14:33:38.709Z,31.60
2022-12-15T14:36:08.751Z,30.60
2022-12-15T14:38:45.168Z,31.60
2022-12-15T14:41:21.371Z,34.70
2022-12-15T14:44:31.797Z,36.20
2022-12-15T14:46:37.542Z,35.10
2022-12-15T14:49:08.848Z,38.80
2022-12-15T14:51:44.115Z,44.60
2022-12-15T14:54:36.737Z,43.80
2022-12-15T14:57:12.294Z,44.60
2022-12-15T14:59:43.369Z,44.20
2022-12-15T15:02:23.286Z,34.90
2022-12-15T15:05:04.174Z,42.10
2022-12-15T15:07:33.172Z,40.90
2022-12-15T15:10:02.072Z,42.60
2022-12-15T15:12:44.248Z,42.50
2022-12-15T15:15:17.116Z,34.20
2022-12-15T15:18:00.119Z,39.50
2022-12-15T15:20:29.785Z,42.90
2022-12-15T15:23:16.487Z,42.10
2022-12-15T15:26:06.210Z,41.90
2022-12-15T15:28:39.583Z,43.90
2022-12-15T15:31:25.300Z,35.80
2022-12-15T15:33:52.965Z,40.20
2022-12-15T15:36:22.044Z,40.80
2022-12-15T15:38:48.794Z,45.30
2022-12-15T15:41:20.165Z,44.70
2022-12-15T15:43:47.694Z,53.60
2022-12-15T15:46:18.279Z,57.50
2022-12-15T15:48:51.976Z,57.70
2022-12-15T15:51:19.453Z,50.60
2022-12-15T15:53:46.901Z,43.80
2022-12-15T15:56:16.130Z,40.00
2022-12-15T15:58:43.951Z,36.20
2022-12-15T16:01:13.563Z,34.50
2022-12-15T16:03:40.988Z,33.70
2022-12-15T16:06:15.933Z,31.60
2022-12-15T16:08:43.458Z,31.70
2022-12-15T16:11:13.140Z,31.60
2022-12-15T16:13:40.442Z,20.00
2022-12-15T16:16:18.023Z,31.30
2022-12-15T16:18:44.872Z,32.80
2022-12-15T16:21:14.293Z,34.80
2022-12-15T16:23:43.312Z,36.20
2022-12-15T16:26:15.264Z,36.30
2022-12-15T16:28:42.067Z,40.00
2022-12-15T16:31:15.443Z,38.50
2022-12-15T16:33:58.247Z,34.70
2022-12-15T16:36:25.081Z,32.20
2022-12-15T16:38:51.796Z,27.00
2022-12-15T16:41:34.060Z,24.60
2022-12-15T16:44:00.756Z,25.60
2022-12-15T16:46:27.664Z,29.90
2022-12-15T16:48:54.745Z,28.80
2022-12-15T16:51:32.606Z,28.70
2022-12-15T16:53:59.314Z,29.30
2022-12-15T16:56:25.994Z,27.50
2022-12-15T16:58:57.594Z,28.00
2022-12-15T17:01:30.139Z,25.80
2022-12-15T17:03:59.816Z,27.90
2022-12-15T17:06:27.687Z,26.50
2022-12-15T17:08:56.589Z,27.60
2022-12-15T17:11:26.997Z,30.50
2022-12-15T17:13:57.974Z,34.30
2022-12-15T17:16:41.676Z,31.60
2022-12-15T17:19:08.835Z,32.30
2022-12-15T17:21:45.069Z,32.70
2022-12-15T17:24:16.706Z,34.80
2022-12-15T17:26:44.697Z,34.40
2022-12-15T17:29:17.481Z,37.80
2022-12-15T17:31:44.516Z,39.30
2022-12-15T17:34:31.867Z,37.40
2022-12-15T17:37:01.105Z,34.30
2022-12-15T17:39:28.431Z,36.80
2022-12-15T17:42:00.527Z,36.80
2022-12-15T17:44:34.398Z,38.30
2022-12-15T17:47:02.657Z,36.00
2022-12-15T17:49:34.991Z,36.60
2022-12-15T17:52:05.405Z,40.40
2022-12-15T17:54:33.689Z,41.60
2022-12-15T17:57:00.381Z,44.10
2022-12-15T17:59:27.756Z,44.50
2022-12-15T18:01:57.421Z,42.60
2022-12-15T18:04:25.503Z,42.50
2022-12-15T18:06:59.554Z,43.50
2022-12-15T18:09:28.241Z,43.40
2022-12-15T18:11:55.123Z,43.60
2022-12-15T18:14:23.081Z,45.10
2022-12-15T18:16:50.075Z,43.50
2022-12-15T18:19:16.843Z,42.80
2022-12-15T18:21:43.846Z,42.20
2022-12-15T18:24:14.002Z,42.80
2022-12-15T18:26:40.743Z,41.00
2022-12-15T18:29:13.793Z,41.00
2022-12-15T18:31:41.952Z,30.90
2022-12-15T18:34:30.175Z,37.60
2022-12-15T18:36:57.273Z,39.60
2022-12-15T18:39:24.245Z,39.80
2022-12-15T18:41:54.869Z,43.00
2022-12-15T18:44:26.390Z,38.40
2022-12-15T18:46:55.078Z,39.40
2022-12-15T18:49:23.313Z,39.90
2022-12-15T18:51:50.527Z,37.00
2022-12-15T18:54:20.337Z,39.70
2022-12-15T18:56:48.038Z,39.30
2022-12-15T18:59:16.521Z,43.10
2022-12-15T19:01:45.675Z,39.50
2022-12-15T19:04:13.313Z,39.80
2022-12-15T19:06:41.069Z,38.00
2022-12-15T19:09:15.932Z,37.10
2022-12-15T19:12:06.233Z,37.60
2022-12-15T19:14:40.570Z,37.50
2022-12-15T19:17:39.410Z,38.70
2022-12-15T19:20:31.486Z,37.60
2022-12-15T19:22:58.363Z,38.10
2022-12-15T19:25:28.369Z,70.70
2022-12-15T19:27:59.267Z,139.50
2022-12-15T19:30:30.291Z,105.20
2022-12-15T19:33:13.052Z,71.80
2022-12-15T19:35:42.828Z,38.40
2022-12-15T19:38:19.393Z,38.70
2022-12-15T19:40:47.650Z,37.00
2022-12-15T19:43:17.415Z,35.90
2022-12-15T19:45:44.171Z,34.20
2022-12-15T19:48:26.200Z,35.00
2022-12-15T19:50:54.848Z,32.70
2022-12-15T19:53:40.841Z,34.00
2022-12-15T19:56:13.044Z,34.30
2022-12-15T19:58:39.782Z,35.40
2022-12-15T20:01:10.712Z,35.80
2022-12-15T20:03:38.292Z,35.00
2022-12-15T20:06:14.213Z,33.80
2022-12-15T20:08:43.449Z,35.40
2022-12-15T20:11:18.190Z,38.00
2022-12-15T20:13:46.658Z,38.50
2022-12-15T20:16:18.492Z,39.90
2022-12-15T20:18:47.828Z,41.90
2022-12-15T20:21:20.613Z,45.00
2022-12-15T20:23:53.224Z,43.00
2022-12-15T20:26:22.016Z,43.80
2022-12-15T20:28:49.120Z,43.30
2022-12-15T20:31:18.905Z,41.80
2022-12-15T20:33:46.540Z,42.10
2022-12-15T20:36:23.366Z,41.90
2022-12-15T20:39:05.848Z,37.80
2022-12-15T20:41:33.062Z,36.60
2022-12-15T20:43:59.729Z,38.10
2022-12-15T20:46:33.530Z,50.60
2022-12-15T20:49:00.486Z,54.30
2022-12-15T20:51:31.172Z,52.00
2022-12-15T20:54:00.621Z,39.90
2022-12-15T20:56:28.173Z,33.50
2022-12-15T20:58:57.833Z,33.60
2022-12-15T21:01:28.829Z,34.40
2022-12-15T21:03:57.401Z,32.90
2022-12-15T21:06:26.079Z,33.20
2022-12-15T21:08:53.118Z,33.20
2022-12-15T21:11:24.516Z,31.60
2022-12-15T21:13:53.566Z,32.90
2022-12-15T21:16:24.157Z,29.90
2022-12-15T21:19:18.769Z,31.50
2022-12-15T21:21:42.083Z,30.30
2022-12-15T21:24:19.753Z,29.80
2022-12-15T21:26:47.047Z,31.10
2022-12-15T21:29:16.306Z,29.30
2022-12-15T21:31:43.889Z,31.30
2022-12-15T21:34:11.141Z,30.90
2022-12-15T21:36:40.444Z,31.30
2022-12-15T21:39:08.204Z,32.10
2022-12-15T21:41:35.230Z,29.70
2022-12-15T21:44:01.919Z,33.50
2022-12-15T21:46:28.969Z,32.20
2022-12-15T21:49:12.430Z,31.40
2022-12-15T21:51:41.013Z,30.50
2022-12-15T21:54:16.602Z,31.00
2022-12-15T21:56:43.417Z,31.80
2022-12-15T21:59:14.639Z,30.70
2022-12-15T22:01:41.769Z,31.00
2022-12-15T22:04:25.475Z,30.00
2022-12-15T22:06:52.370Z,29.90
2022-12-15T22:09:21.281Z,28.20
2022-12-15T22:11:51.475Z,29.80
2022-12-15T22:14:33.792Z,29.50
2022-12-15T22:17:11.739Z,29.30
2022-12-15T22:19:38.469Z,29.00
2022-12-15T22:22:05.172Z,26.90
2022-12-15T22:24:31.866Z,27.20
2022-12-15T22:26:58.606Z,26.70
2022-12-15T22:29:25.804Z,28.90
2022-12-15T22:31:52.508Z,27.60
2022-12-15T22:34:24.343Z,19.70
2022-12-15T22:36:51.843Z,28.60
2022-12-15T22:39:19.355Z,24.40
2022-12-15T22:41:49.950Z,25.80
2022-12-15T22:44:21.484Z,24.90
2022-12-15T22:46:50.377Z,23.00
2022-12-15T22:49:20.421Z,26.90
2022-12-15T22:51:47.467Z,25.60
2022-12-15T22:54:17.970Z,24.90
2022-12-15T22:56:46.101Z,20.70
2022-12-15T22:59:22.787Z,23.70
2022-12-15T23:01:49.632Z,19.70
2022-12-15T23:04:16.365Z,22.80
2022-12-15T23:06:43.109Z,24.20
2022-12-15T23:09:09.811Z,23.60
2022-12-15T23:11:37.660Z,25.60
2022-12-15T23:14:06.743Z,20.00
2022-12-15T23:16:34.580Z,23.40
2022-12-15T23:19:01.742Z,22.70
2022-12-15T23:21:28.974Z,22.90
2022-12-15T23:23:55.680Z,21.30
2022-12-15T23:26:23.995Z,20.90
2022-12-15T23:28:50.973Z,21.80
2022-12-15T23:31:18.056Z,21.60
2022-12-15T23:33:45.079Z,22.30
2022-12-15T23:36:12.339Z,21.80
2022-12-15T23:38:39.775Z,21.40
2022-12-15T23:41:06.945Z,20.60
2022-12-15T23:43:35.985Z,20.50
2022-12-15T23:46:05.709Z,17.70
2022-12-15T23:48:34.912Z,19.70
2022-12-15T23:51:09.972Z,18.40
2022-12-15T23:53:37.972Z,21.10
2022-12-15T23:56:08.602Z,18.00
2022-12-15T23:58:36.091Z,13.90
